createdAt,value
2023-02-27T00:00:36.914Z,2.88
2023-02-27T00:03:27.108Z,2.60
2023-02-27T00:06:18.721Z,2.63
2023-02-27T00:09:08.006Z,2.45
2023-02-27T00:11:57.322Z,2.47
2023-02-27T00:14:46.554Z,2.88
2023-02-27T00:17:36.169Z,2.40
2023-02-27T00:20:28.018Z,2.50
2023-02-27T00:23:17.247Z,2.50
2023-02-27T00:26:06.659Z,2.63
2023-02-27T00:28:56.316Z,3.30
2023-02-27T00:31:45.681Z,3.45
2023-02-27T00:34:34.995Z,3.40
2023-02-27T00:37:24.283Z,4.07
2023-02-27T00:40:15.220Z,3.70
2023-02-27T00:43:05.567Z,3.30
2023-02-27T00:45:54.782Z,3.38
2023-02-27T00:48:44.183Z,3.10
2023-02-27T00:51:33.401Z,2.88
2023-02-27T00:54:25.295Z,3.10
2023-02-27T00:57:14.634Z,3.33
2023-02-27T01:00:04.625Z,2.90
2023-02-27T01:02:53.874Z,3.03
2023-02-27T01:05:43.338Z,3.58
2023-02-27T01:08:32.500Z,3.17
2023-02-27T01:11:21.705Z,3.00
2023-02-27T01:14:10.967Z,3.17
2023-02-27T01:17:00.253Z,2.97
2023-02-27T01:19:49.471Z,3.00
2023-02-27T01:22:38.981Z,3.00
2023-02-27T01:25:28.599Z,3.03
2023-02-27T01:28:18.145Z,3.47
2023-02-27T01:31:07.407Z,3.00
2023-02-27T01:33:56.661Z,3.10
2023-02-27T01:36:46.054Z,2.88
2023-02-27T01:39:38.208Z,3.22
2023-02-27T01:42:29.814Z,3.17
2023-02-27T01:45:32.913Z,2.90
2023-02-27T01:48:36.220Z,2.50
2023-02-27T01:51:25.868Z,3.00
2023-02-27T01:54:20.294Z,3.00
2023-02-27T01:57:10.744Z,3.08
2023-02-27T02:00:01.358Z,2.90
2023-02-27T02:03:28.754Z,2.85
2023-02-27T02:06:18.530Z,2.97
2023-02-27T02:09:08.643Z,3.33
2023-02-27T02:11:59.187Z,2.83
2023-02-27T02:14:48.409Z,3.20
2023-02-27T02:17:51.060Z,2.80
2023-02-27T02:21:44.288Z,3.00
2023-02-27T02:24:37.043Z,3.00
2023-02-27T02:27:32.281Z,3.25
2023-02-27T02:30:46.828Z,3.13
2023-02-27T02:34:17.218Z,3.47
2023-02-27T02:37:54.566Z,3.20
2023-02-27T02:40:55.202Z,2.95
2023-02-27T02:43:59.525Z,3.08
2023-02-27T02:46:51.761Z,2.90
2023-02-27T02:50:04.438Z,2.80
2023-02-27T02:53:07.541Z,2.92
2023-02-27T02:56:03.377Z,2.75
2023-02-27T02:59:01.968Z,3.20
2023-02-27T03:02:09.987Z,3.05
2023-02-27T03:05:06.892Z,3.00
2023-02-27T03:08:03.171Z,3.08
2023-02-27T03:10:59.948Z,3.03
2023-02-27T03:13:55.176Z,3.25
2023-02-27T03:16:52.741Z,3.17
2023-02-27T03:19:45.096Z,2.92
2023-02-27T03:22:39.197Z,3.20
2023-02-27T03:25:30.782Z,3.15
2023-02-27T03:28:25.298Z,3.47
2023-02-27T03:31:35.546Z,3.13
2023-02-27T03:34:35.400Z,2.97
2023-02-27T03:37:54.927Z,3.50
2023-02-27T03:41:16.578Z,3.42
2023-02-27T03:44:37.466Z,3.60
2023-02-27T03:47:26.973Z,3.63
2023-02-27T03:50:17.688Z,3.20
2023-02-27T03:53:12.900Z,3.22
2023-02-27T03:56:03.947Z,3.50
2023-02-27T03:58:54.764Z,3.42
2023-02-27T04:01:46.171Z,3.50
2023-02-27T04:04:36.692Z,3.55
2023-02-27T04:08:21.913Z,3.00
2023-02-27T04:11:14.344Z,3.40
2023-02-27T04:14:13.428Z,3.00
2023-02-27T04:17:21.254Z,2.95
2023-02-27T04:20:14.635Z,3.20
2023-02-27T04:23:10.263Z,3.03
2023-02-27T04:26:17.511Z,3.15
2023-02-27T04:29:14.607Z,3.45
2023-02-27T04:32:22.691Z,3.40
2023-02-27T04:35:17.629Z,3.10
2023-02-27T04:38:31.925Z,2.97
2023-02-27T04:41:34.534Z,3.03
2023-02-27T04:44:25.461Z,2.95
2023-02-27T04:47:16.479Z,2.85
2023-02-27T04:50:25.751Z,3.13
2023-02-27T04:53:40.126Z,2.92
2023-02-27T04:59:52.666Z,2.90
2023-02-27T05:02:46.308Z,3.20
2023-02-27T05:05:39.331Z,3.05
2023-02-27T05:08:51.731Z,3.17
2023-02-27T05:11:58.102Z,2.90
2023-02-27T05:15:05.801Z,2.80
2023-02-27T05:18:03.520Z,3.38
2023-02-27T05:21:21.954Z,3.22
2023-02-27T05:24:36.792Z,3.17
2023-02-27T05:27:40.111Z,3.22
2023-02-27T05:30:47.809Z,3.47
2023-02-27T05:34:01.237Z,3.88
2023-02-27T05:37:13.602Z,3.55
2023-02-27T05:40:10.253Z,3.40
2023-02-27T05:43:06.421Z,3.60
2023-02-27T05:46:02.401Z,3.10
2023-02-27T05:49:06.160Z,3.22
2023-02-27T05:51:57.879Z,3.10
2023-02-27T05:55:16.269Z,3.10
2023-02-27T05:58:17.211Z,3.53
2023-02-27T06:01:09.121Z,3.47
2023-02-27T06:03:58.748Z,3.10
2023-02-27T06:06:48.315Z,3.08
2023-02-27T06:09:37.645Z,3.28
2023-02-27T06:12:26.852Z,3.20
2023-02-27T06:15:16.111Z,3.38
2023-02-27T06:18:05.632Z,3.13
2023-02-27T06:20:55.646Z,3.03
2023-02-27T06:23:44.962Z,3.25
2023-02-27T06:26:34.167Z,3.00
2023-02-27T06:29:23.556Z,2.90
2023-02-27T06:32:12.817Z,3.20
2023-02-27T06:35:04.935Z,3.40
2023-02-27T06:37:54.285Z,2.97
2023-02-27T06:40:43.876Z,3.10
2023-02-27T06:43:35.720Z,2.90
2023-02-27T06:46:26.544Z,3.20
2023-02-27T06:49:16.237Z,2.90
2023-02-27T06:52:05.461Z,3.08
2023-02-27T06:54:54.795Z,2.80
2023-02-27T06:57:44.031Z,3.00
2023-02-27T07:00:33.226Z,3.10
2023-02-27T07:03:22.437Z,3.00
2023-02-27T07:06:13.484Z,3.10
2023-02-27T07:09:06.664Z,3.10
2023-02-27T07:11:56.425Z,2.63
2023-02-27T07:14:45.649Z,2.85
2023-02-27T07:17:35.348Z,3.03
2023-02-27T07:20:26.288Z,3.05
2023-02-27T07:23:15.518Z,3.13
2023-02-27T07:26:08.017Z,3.10
2023-02-27T07:28:57.187Z,3.00
2023-02-27T07:31:46.482Z,2.92
2023-02-27T07:34:35.927Z,2.85
2023-02-27T07:37:27.655Z,2.83
2023-02-27T07:40:17.605Z,2.80
2023-02-27T07:43:06.961Z,2.70
2023-02-27T07:45:56.146Z,2.90
2023-02-27T07:48:45.446Z,2.90
2023-02-27T07:51:34.666Z,2.90
2023-02-27T07:54:23.945Z,3.00
2023-02-27T07:57:13.373Z,2.90
2023-02-27T08:00:02.563Z,2.90
2023-02-27T08:03:01.372Z,2.80
2023-02-27T08:05:50.728Z,2.70
2023-02-27T08:08:40.046Z,2.88
2023-02-27T08:11:29.548Z,2.58
2023-02-27T08:14:18.950Z,2.90
2023-02-27T08:17:08.348Z,3.17
2023-02-27T08:19:57.522Z,2.72
2023-02-27T08:22:46.728Z,2.70
2023-02-27T08:25:35.864Z,2.72
2023-02-27T08:28:25.563Z,2.88
2023-02-27T08:31:15.268Z,3.08
2023-02-27T08:34:10.401Z,2.60
2023-02-27T08:37:00.193Z,2.60
2023-02-27T08:39:49.471Z,2.70
2023-02-27T08:42:39.331Z,2.85
2023-02-27T08:45:29.247Z,3.05
2023-02-27T08:48:19.448Z,2.70
2023-02-27T08:51:08.683Z,2.70
2023-02-27T08:53:59.949Z,2.95
2023-02-27T08:56:49.906Z,2.92
2023-02-27T08:59:39.164Z,2.80
2023-02-27T09:02:28.554Z,2.97
2023-02-27T09:05:17.971Z,2.90
2023-02-27T09:08:08.221Z,2.70
2023-02-27T09:10:58.513Z,2.83
2023-02-27T09:13:47.730Z,2.80
2023-02-27T09:16:37.026Z,2.70
2023-02-27T09:19:26.327Z,2.88
2023-02-27T09:22:15.509Z,2.47
2023-02-27T09:25:04.996Z,2.90
2023-02-27T09:27:54.286Z,2.97
2023-02-27T09:30:43.611Z,2.80
2023-02-27T09:33:36.445Z,3.03
2023-02-27T09:36:26.500Z,2.92
2023-02-27T09:39:15.897Z,3.00
2023-02-27T09:42:12.604Z,2.80
2023-02-27T09:45:07.795Z,2.72
2023-02-27T09:48:07.623Z,3.05
2023-02-27T09:50:57.631Z,2.90
2023-02-27T09:53:55.501Z,2.53
2023-02-27T09:56:54.703Z,2.60
2023-02-27T10:00:00.284Z,2.83
2023-02-27T10:03:05.976Z,2.70
2023-02-27T10:06:13.759Z,3.10
2023-02-27T10:09:21.285Z,2.58
2023-02-27T10:12:54.655Z,2.72
2023-02-27T10:15:52.882Z,2.63
2023-02-27T10:19:02.384Z,2.90
2023-02-27T10:21:55.222Z,3.00
2023-02-27T10:24:57.055Z,3.10
2023-02-27T10:27:49.661Z,3.05
2023-02-27T10:30:39.021Z,3.57
2023-02-27T10:33:40.660Z,3.50
2023-02-27T10:36:34.382Z,2.95
2023-02-27T10:39:25.893Z,2.78
2023-02-27T10:42:17.651Z,3.20
2023-02-27T10:45:07.615Z,3.08
2023-02-27T10:47:56.999Z,2.92
2023-02-27T10:50:51.500Z,2.70
2023-02-27T10:53:40.659Z,2.90
2023-02-27T10:56:30.163Z,2.90
2023-02-27T10:59:24.134Z,3.00
2023-02-27T11:02:21.724Z,2.63
2023-02-27T11:05:43.116Z,2.90
2023-02-27T11:08:35.248Z,2.78
2023-02-27T11:11:29.769Z,2.88
2023-02-27T11:14:29.014Z,2.90
2023-02-27T11:17:29.578Z,2.72
2023-02-27T11:20:31.476Z,2.70
2023-02-27T11:23:25.870Z,2.85
2023-02-27T11:26:26.737Z,2.95
2023-02-27T11:29:19.181Z,2.67
2023-02-27T11:32:16.218Z,2.90
2023-02-27T11:35:06.654Z,2.88
2023-02-27T11:38:04.576Z,2.83
2023-02-27T11:41:08.668Z,3.10
2023-02-27T11:43:59.135Z,2.65
2023-02-27T11:46:49.055Z,3.03
2023-02-27T11:49:53.890Z,3.53
2023-02-27T11:52:51.750Z,2.80
2023-02-27T11:55:41.077Z,2.70
2023-02-27T11:58:36.801Z,2.78
2023-02-27T12:01:40.359Z,2.92
2023-02-27T12:05:04.123Z,3.28
2023-02-27T12:08:09.262Z,2.92
2023-02-27T12:11:21.476Z,3.17
2023-02-27T12:14:18.183Z,3.20
2023-02-27T12:17:21.906Z,2.97
2023-02-27T12:20:21.081Z,3.08
2023-02-27T12:23:22.889Z,3.08
2023-02-27T12:26:44.385Z,2.80
2023-02-27T12:29:40.039Z,2.53
2023-02-27T12:33:04.838Z,2.85
2023-02-27T12:36:03.846Z,2.95
2023-02-27T12:38:53.576Z,2.95
2023-02-27T12:41:54.712Z,3.13
2023-02-27T12:45:11.679Z,2.85
2023-02-27T12:48:26.640Z,3.00
2023-02-27T12:51:32.864Z,2.78
2023-02-27T12:54:55.750Z,2.75
2023-02-27T12:58:16.243Z,3.08
2023-02-27T13:01:31.844Z,2.75
2023-02-27T13:04:43.003Z,3.08
2023-02-27T13:07:40.185Z,2.83
2023-02-27T13:11:31.112Z,3.00
2023-02-27T13:14:38.399Z,3.15
2023-02-27T13:17:33.266Z,2.80
2023-02-27T13:20:27.804Z,3.17
2023-02-27T13:23:29.702Z,2.58
2023-02-27T13:26:33.016Z,2.92
2023-02-27T13:29:24.085Z,2.70
2023-02-27T13:32:32.732Z,2.95
2023-02-27T13:35:37.012Z,2.90
2023-02-27T13:38:39.901Z,2.60
2023-02-27T13:41:29.562Z,2.83
2023-02-27T13:44:22.095Z,2.90
2023-02-27T13:47:37.517Z,2.78
2023-02-27T13:50:28.924Z,3.10
2023-02-27T13:53:27.910Z,2.30
2023-02-27T13:56:25.132Z,2.90
2023-02-27T13:59:29.855Z,2.75
2023-02-27T14:02:37.488Z,2.58
2023-02-27T14:05:41.140Z,2.70
2023-02-27T14:08:38.001Z,2.85
2023-02-27T14:11:34.016Z,2.90
2023-02-27T14:14:46.015Z,2.78
2023-02-27T14:17:38.290Z,3.10
2023-02-27T14:20:31.610Z,2.80
2023-02-27T14:23:28.337Z,2.75
2023-02-27T14:26:22.116Z,2.80
2023-02-27T14:29:19.532Z,2.90
2023-02-27T14:32:09.681Z,3.53
2023-02-27T14:34:59.042Z,2.75
2023-02-27T14:37:48.934Z,2.80
2023-02-27T14:40:53.091Z,2.80
2023-02-27T14:43:56.114Z,2.83
2023-02-27T14:46:45.483Z,3.25
2023-02-27T14:49:36.942Z,2.78
2023-02-27T14:52:33.933Z,2.72
2023-02-27T14:55:30.892Z,2.80
2023-02-27T14:58:22.871Z,2.85
2023-02-27T15:01:12.676Z,2.60
2023-02-27T15:04:02.387Z,2.55
2023-02-27T15:06:53.470Z,2.95
2023-02-27T15:09:45.684Z,2.47
2023-02-27T15:12:40.258Z,2.35
2023-02-27T15:15:29.821Z,2.63
2023-02-27T15:18:19.422Z,2.50
2023-02-27T15:21:16.810Z,2.80
2023-02-27T15:24:10.045Z,2.60
2023-02-27T15:27:08.443Z,2.53
2023-02-27T15:30:00.545Z,2.25
2023-02-27T15:32:50.318Z,2.47
2023-02-27T15:35:43.674Z,2.60
2023-02-27T15:38:39.025Z,2.42
2023-02-27T15:41:28.488Z,2.80
2023-02-27T15:44:20.874Z,2.45
2023-02-27T15:47:17.356Z,3.55
2023-02-27T15:50:28.593Z,2.88
2023-02-27T15:53:29.464Z,2.83
2023-02-27T15:56:23.182Z,2.80
2023-02-27T15:59:18.320Z,2.83
2023-02-27T16:02:17.046Z,2.75
2023-02-27T16:05:06.657Z,2.83
2023-02-27T16:07:56.893Z,2.80
2023-02-27T16:10:47.663Z,2.83
2023-02-27T16:13:42.098Z,2.85
2023-02-27T16:16:37.106Z,2.85
2023-02-27T16:19:29.177Z,2.83
2023-02-27T16:22:20.411Z,2.75
2023-02-27T16:25:12.102Z,2.50
2023-02-27T16:28:01.530Z,2.85
2023-02-27T16:30:55.408Z,2.88
2023-02-27T16:33:44.661Z,2.78
2023-02-27T16:36:34.375Z,2.63
2023-02-27T16:39:23.681Z,2.47
2023-02-27T16:42:12.847Z,2.92
2023-02-27T16:45:02.160Z,2.65
2023-02-27T16:47:54.376Z,2.58
2023-02-27T16:50:44.315Z,2.45
2023-02-27T16:53:33.513Z,2.88
2023-02-27T16:56:37.810Z,2.90
2023-02-27T16:59:41.439Z,2.88
2023-02-27T17:02:30.704Z,2.70
2023-02-27T17:05:20.622Z,2.50
2023-02-27T17:08:12.384Z,2.75
2023-02-27T17:11:01.582Z,2.85
2023-02-27T17:13:50.859Z,2.72
2023-02-27T17:16:40.226Z,2.80
2023-02-27T17:19:29.427Z,2.42
2023-02-27T17:22:18.703Z,2.92
2023-02-27T17:25:09.146Z,2.13
2023-02-27T17:27:58.915Z,3.05
2023-02-27T17:30:51.259Z,2.88
2023-02-27T17:33:40.482Z,2.65
2023-02-27T17:36:30.034Z,2.70
2023-02-27T17:39:19.457Z,2.60
2023-02-27T17:42:08.657Z,2.80
2023-02-27T17:44:58.150Z,2.35
2023-02-27T17:47:47.463Z,2.92
2023-02-27T17:50:37.202Z,2.70
2023-02-27T17:53:26.462Z,2.63
2023-02-27T17:56:15.753Z,2.60
2023-02-27T17:59:05.197Z,2.65
2023-02-27T18:01:55.649Z,2.88
2023-02-27T18:04:45.025Z,2.63
2023-02-27T18:07:35.619Z,2.50
2023-02-27T18:10:26.045Z,2.67
2023-02-27T18:13:15.990Z,2.80
2023-02-27T18:16:05.870Z,2.40
2023-02-27T18:18:55.233Z,2.85
2023-02-27T18:21:48.044Z,2.60
2023-02-27T18:24:37.424Z,2.58
2023-02-27T18:27:28.953Z,2.75
2023-02-27T18:30:22.748Z,2.42
2023-02-27T18:33:12.090Z,2.60
2023-02-27T18:36:01.291Z,2.88
2023-02-27T18:38:50.581Z,2.05
2023-02-27T18:41:44.217Z,2.50
2023-02-27T18:44:33.474Z,2.67
2023-02-27T18:47:22.694Z,2.60
2023-02-27T18:50:12.528Z,2.50
2023-02-27T18:53:01.759Z,2.50
2023-02-27T18:55:50.953Z,2.78
2023-02-27T18:58:40.567Z,2.50
2023-02-27T19:01:32.821Z,2.28
2023-02-27T19:04:24.937Z,2.35
2023-02-27T19:07:14.569Z,2.58
2023-02-27T19:10:03.911Z,2.47
2023-02-27T19:12:53.226Z,2.65
2023-02-27T19:15:42.400Z,2.88
2023-02-27T19:18:31.866Z,2.60
2023-02-27T19:21:21.227Z,2.67
2023-02-27T19:24:12.950Z,2.60
2023-02-27T19:27:02.107Z,2.47
2023-02-27T19:29:51.826Z,2.95
2023-02-27T19:32:41.474Z,2.60
2023-02-27T19:35:30.703Z,2.60
2023-02-27T19:38:19.883Z,2.80
2023-02-27T19:41:11.735Z,2.78
2023-02-27T19:44:01.031Z,2.50
2023-02-27T19:46:52.899Z,2.50
2023-02-27T19:49:42.143Z,2.42
2023-02-27T19:52:31.540Z,2.50
2023-02-27T19:55:20.730Z,3.33
2023-02-27T19:58:09.971Z,2.75
2023-02-27T20:00:59.264Z,3.00
2023-02-27T20:03:48.615Z,2.83
2023-02-27T20:06:42.894Z,2.75
2023-02-27T20:09:34.250Z,2.65
2023-02-27T20:12:23.453Z,2.50
2023-02-27T20:15:13.137Z,2.33
2023-02-27T20:18:02.362Z,2.60
2023-02-27T20:21:17.086Z,3.00
2023-02-27T20:24:06.571Z,2.67
2023-02-27T20:26:56.015Z,2.72
2023-02-27T20:29:55.865Z,2.70
2023-02-27T20:32:48.215Z,2.53
2023-02-27T20:35:43.985Z,2.40
2023-02-27T20:38:35.092Z,2.60
2023-02-27T20:41:24.769Z,2.90
2023-02-27T20:44:14.890Z,2.25
2023-02-27T20:47:04.417Z,2.42
2023-02-27T20:49:54.394Z,2.85
2023-02-27T20:52:43.891Z,2.53
2023-02-27T20:55:34.193Z,2.75
2023-02-27T20:58:23.374Z,2.50
2023-02-27T21:01:14.021Z,2.50
2023-02-27T21:04:03.689Z,2.65
2023-02-27T21:06:53.886Z,2.30
2023-02-27T21:09:43.334Z,2.30
2023-02-27T21:12:32.652Z,2.58
2023-02-27T21:15:23.096Z,2.90
2023-02-27T21:18:13.886Z,2.47
2023-02-27T21:21:12.512Z,2.50
2023-02-27T21:24:02.201Z,2.22
2023-02-27T21:26:51.570Z,2.40
2023-02-27T21:29:40.845Z,2.30
2023-02-27T21:32:30.015Z,2.40
2023-02-27T21:35:19.308Z,2.40
2023-02-27T21:38:08.706Z,2.80
2023-02-27T21:40:59.280Z,2.50
2023-02-27T21:43:48.446Z,2.47
2023-02-27T21:46:37.798Z,2.58
2023-02-27T21:49:29.546Z,3.25
2023-02-27T21:52:18.957Z,2.30
2023-02-27T21:55:09.319Z,2.00
2023-02-27T21:57:58.544Z,2.33
2023-02-27T22:00:47.970Z,2.40
2023-02-27T22:03:37.706Z,2.40
2023-02-27T22:06:29.966Z,2.55
2023-02-27T22:09:20.405Z,2.30
2023-02-27T22:12:10.165Z,2.60
2023-02-27T22:14:59.430Z,2.40
2023-02-27T22:17:51.320Z,2.22
2023-02-27T22:20:41.266Z,2.25
2023-02-27T22:23:30.755Z,2.40
2023-02-27T22:26:25.066Z,2.28
2023-02-27T22:29:14.519Z,2.20
2023-02-27T22:32:03.954Z,2.50
2023-02-27T22:34:53.218Z,2.30
2023-02-27T22:37:42.405Z,2.40
2023-02-27T22:40:35.110Z,2.20
2023-02-27T22:43:24.372Z,2.53
2023-02-27T22:46:17.431Z,2.17
2023-02-27T22:49:09.608Z,2.65
2023-02-27T22:51:58.749Z,2.83
2023-02-27T22:54:47.982Z,2.55
2023-02-27T22:57:37.191Z,2.28
2023-02-27T23:00:27.872Z,2.15
2023-02-27T23:03:18.515Z,2.22
2023-02-27T23:06:10.342Z,1.90
2023-02-27T23:09:00.062Z,2.10
2023-02-27T23:11:49.396Z,2.75
2023-02-27T23:14:39.092Z,2.10
2023-02-27T23:17:28.324Z,2.22
2023-02-27T23:20:17.680Z,2.30
2023-02-27T23:23:08.593Z,2.35
2023-02-27T23:26:04.763Z,2.50
2023-02-27T23:28:54.031Z,2.20
2023-02-27T23:31:43.994Z,2.30
2023-02-27T23:34:47.526Z,2.45
2023-02-27T23:37:39.558Z,2.10
2023-02-27T23:40:30.605Z,2.13
2023-02-27T23:43:20.013Z,2.10
2023-02-27T23:46:14.892Z,2.30
2023-02-27T23:49:04.934Z,2.22
2023-02-27T23:51:54.313Z,2.38
2023-02-27T23:54:44.153Z,2.20
2023-02-27T23:57:33.507Z,2.47
